Time;durP1;ratioP1;P1;durP2;ratioP2;P2;SDS_P1;SDS_P2;PMS_P1;PMS_P2;Temp;Humidity;BMP_temperature;BMP_pressure;BME280_temperature;BME280_humidity;BME280_pressure;Samples;Min_cycle;Max_cycle;Signal;HPM_P1;HPM_P2
2021/06/27 00:00:40;;;;;;;11.73;8.77;;;16.90;99.90;;;15.54;82.94;101347.44;3509947;40;102313;-43
2021/06/27 00:03:09;;;;;;;;;;;16.80;99.90;;;15.51;82.88;101350.66;3510794;40;103009;-41
2021/06/27 00:05:38;;;;;;;11.27;7.80;;;16.80;99.90;;;15.46;82.91;101356.03;3509952;40;102287;-43
2021/06/27 00:08:08;;;;;;;11.73;8.68;;;16.80;99.90;;;15.41;83.11;101342.16;3509925;40;102395;-41
2021/06/27 00:10:40;;;;;;;14.68;8.70;;;16.70;99.90;;;15.37;83.68;101339.00;3509786;40;102316;-41
2021/06/27 00:13:09;;;;;;;11.93;8.38;;;16.70;99.90;;;15.32;83.57;101341.63;3510300;40;102290;-41
2021/06/27 00:15:50;;;;;;;12.02;8.80;;;16.60;99.90;;;15.25;83.79;101344.44;3510269;40;103231;-42
2021/06/27 00:18:22;;;;;;;12.48;9.35;;;16.60;99.90;;;15.26;84.11;101350.81;3510248;40;102442;-41
2021/06/27 00:20:57;;;;;;;12.18;8.73;;;16.60;99.90;;;15.22;84.04;101351.25;3509966;40;102181;-41
2021/06/27 00:23:30;;;;;;;11.88;8.52;;;16.60;99.90;;;15.19;84.25;101350.88;3509754;40;102471;-41
2021/06/27 00:25:59;;;;;;;13.27;8.40;;;16.50;99.90;;;15.16;84.09;101345.84;3508755;40;102460;-42
2021/06/27 00:28:27;;;;;;;11.88;8.60;;;16.50;99.90;;;15.10;84.32;101344.84;3510462;40;102483;-41
2021/06/27 00:30:57;;;;;;;10.50;7.93;;;16.40;99.90;;;15.05;83.93;101348.28;3510261;40;103392;-40
2021/06/27 00:33:24;;;;;;;10.25;8.13;;;16.40;99.90;;;14.95;84.51;101340.56;3509202;40;103308;-41
2021/06/27 00:35:53;;;;;;;11.13;8.55;;;16.30;99.90;;;14.90;84.60;101337.69;3510132;40;103216;-41
2021/06/27 00:38:20;;;;;;;10.88;8.02;;;16.20;99.90;;;14.85;84.97;101340.28;3509860;40;102521;-41
2021/06/27 00:40:48;;;;;;;10.32;8.20;;;16.10;99.90;;;14.79;85.02;101339.28;3509731;40;103173;-41
2021/06/27 00:43:15;;;;;;;;;;;16.10;99.90;;;14.73;85.21;101331.13;3510586;40;102374;-41
2021/06/27 00:45:43;;;;;;;9.63;7.95;;;16.00;99.90;;;14.72;85.43;101332.16;3509593;40;103134;-41
2021/06/27 00:48:11;;;;;;;;;;;16.00;99.90;;;14.68;85.40;101335.34;3642275;22;103382;-38
2021/06/27 00:50:47;;;;;;;9.88;7.57;;;16.10;99.90;;;14.66;85.51;101336.66;3518957;39;103418;-40
2021/06/27 00:53:15;;;;;;;9.48;7.53;;;16.00;99.90;;;14.61;85.43;101337.34;3519649;39;102840;-39
2021/06/27 00:55:45;;;;;;;10.32;7.82;;;16.00;99.90;;;14.57;85.54;101335.25;3519200;39;103331;-41
2021/06/27 00:58:13;;;;;;;9.68;7.93;;;15.90;99.90;;;14.55;85.81;101331.91;3518357;40;103661;-39
2021/06/27 01:00:42;;;;;;;12.07;8.00;;;15.90;99.90;;;14.52;85.99;101330.47;3509718;40;103206;-39
2021/06/27 01:03:10;;;;;;;9.73;8.02;;;15.90;99.90;;;14.47;86.03;101328.38;3509431;40;102330;-41
2021/06/27 01:05:40;;;;;;;11.60;7.65;;;15.80;99.90;;;14.43;86.19;101332.66;3509069;40;102459;-42
2021/06/27 01:08:09;;;;;;;11.35;8.20;;;15.80;99.90;;;14.39;86.15;101321.28;3509505;40;102128;-41
2021/06/27 01:10:37;;;;;;;10.18;7.30;;;15.70;99.90;;;14.37;85.78;101323.41;3509598;40;102403;-42
2021/06/27 01:13:06;;;;;;;9.85;7.45;;;15.70;99.90;;;14.35;86.14;101316.50;3509300;40;102551;-42
2021/06/27 01:15:36;;;;;;;10.90;7.78;;;15.70;99.90;;;14.34;85.68;101323.88;3509461;40;103305;-42
2021/06/27 01:18:04;;;;;;;11.18;8.15;;;15.70;99.90;;;14.31;85.89;101331.69;3509729;40;102372;-42
2021/06/27 01:20:36;;;;;;;10.18;7.68;;;15.70;99.90;;;14.29;86.11;101331.09;3510409;40;102159;-42
2021/06/27 01:23:10;;;;;;;8.98;6.95;;;15.60;99.90;;;14.19;86.02;101317.88;3510338;40;102324;-42
2021/06/27 01:25:46;;;;;;;9.50;7.72;;;15.60;99.90;;;14.19;85.90;101331.59;3510044;40;103261;-44
2021/06/27 01:28:15;;;;;;;10.23;7.55;;;15.50;99.90;;;14.15;86.28;101328.47;3510542;40;102451;-42
2021/06/27 01:30:44;;;;;;;10.80;8.48;;;15.50;99.90;;;14.13;86.36;101327.00;3510753;40;103222;-39
2021/06/27 01:33:17;;;;;;;11.38;7.32;;;15.50;99.90;;;14.07;86.34;101323.28;3510858;40;103523;-40
2021/06/27 01:35:46;;;;;;;9.13;7.68;;;15.40;99.90;;;14.06;86.56;101324.34;3510701;40;102755;-39
2021/06/27 01:38:16;;;;;;;10.95;7.85;;;15.40;99.90;;;14.02;86.41;101332.16;3510432;40;102337;-39
2021/06/27 01:40:44;;;;;;;10.85;8.35;;;15.40;99.90;;;13.98;86.38;101327.34;3510152;40;102261;-41
2021/06/27 01:43:19;;;;;;;9.50;7.22;;;15.30;99.90;;;13.96;86.63;101327.59;3510531;40;102520;-39
2021/06/27 01:45:56;;;;;;;9.60;7.68;;;15.30;99.90;;;13.93;86.87;101319.81;3510744;40;104215;-39
2021/06/27 01:48:24;;;;;;;10.25;7.28;;;15.30;99.90;;;13.90;86.99;101323.81;3510454;40;102551;-39
2021/06/27 01:50:54;;;;;;;9.80;7.72;;;15.20;99.90;;;13.87;86.99;101328.91;3510924;40;102188;-41
2021/06/27 01:53:29;;;;;;;9.23;7.53;;;15.20;99.90;;;13.85;87.07;101329.13;3510279;40;103274;-39
2021/06/27 01:56:06;;;;;;;9.73;7.40;;;15.20;99.90;;;13.81;87.23;101327.91;3509875;40;102227;-42
2021/06/27 01:58:42;;;;;;;10.13;7.65;;;15.20;99.90;;;13.81;87.26;101330.66;3510735;40;102531;-41
2021/06/27 02:01:26;;;;;;;10.10;7.88;;;15.20;99.90;;;13.79;87.64;101330.00;3510344;40;102313;-42
2021/06/27 02:03:54;;;;;;;11.57;7.70;;;15.20;99.90;;;13.79;87.47;101324.53;3510053;40;103697;-40
2021/06/27 02:06:25;;;;;;;11.18;7.90;;;15.10;99.90;;;13.75;87.35;101328.78;3510253;40;102316;-43
2021/06/27 02:08:56;;;;;;;9.35;7.75;;;15.10;99.90;;;13.71;87.58;101330.28;3510057;40;102280;-42
2021/06/27 02:11:26;;;;;;;11.23;7.15;;;15.10;99.90;;;13.68;87.64;101325.25;3510589;40;103135;-42
2021/06/27 02:13:56;;;;;;;11.43;7.47;;;15.00;99.90;;;13.65;87.86;101321.88;3510599;40;102396;-40
2021/06/27 02:16:26;;;;;;;10.25;7.43;;;15.00;99.90;;;13.64;87.83;101325.69;3510339;40;103112;-42
2021/06/27 02:18:55;;;;;;;10.70;7.65;;;15.00;99.90;;;13.62;87.82;101322.31;3509985;40;102831;-42
2021/06/27 02:21:28;;;;;;;10.18;7.85;;;15.00;99.90;;;13.61;87.99;101326.13;3510836;40;102246;-42
2021/06/27 02:23:57;;;;;;;9.75;7.80;;;15.00;99.90;;;13.57;88.15;101326.78;3509892;40;102210;-43
2021/06/27 02:26:26;;;;;;;10.70;7.85;;;15.00;99.90;;;13.59;88.38;101332.88;3510229;40;103142;-42
2021/06/27 02:28:59;;;;;;;9.82;7.82;;;14.90;99.90;;;13.57;88.28;101337.75;3509931;40;102339;-42
2021/06/27 02:31:31;;;;;;;10.73;7.63;;;14.90;99.90;;;13.53;88.24;101340.09;3510115;40;102357;-42
2021/06/27 02:34:00;;;;;;;10.27;7.78;;;14.90;99.90;;;13.50;88.20;101335.91;3509933;40;102328;-41
2021/06/27 02:36:28;;;;;;;10.27;7.90;;;14.80;99.90;;;13.47;88.33;101332.75;3510326;40;104077;-41
2021/06/27 02:38:56;;;;;;;12.13;7.65;;;14.80;99.90;;;13.42;88.38;101338.88;3509891;40;103977;-44
2021/06/27 02:41:24;;;;;;;12.45;7.85;;;14.80;99.90;;;13.40;88.84;101329.16;3509686;40;102258;-42
2021/06/27 02:43:51;;;;;;;11.10;8.15;;;14.80;99.90;;;13.39;89.11;101333.81;3509984;40;102449;-42
2021/06/27 02:46:18;;;;;;;10.60;8.40;;;14.80;99.90;;;13.38;88.80;101323.91;3510038;40;102186;-42
2021/06/27 02:48:46;;;;;;;11.30;8.48;;;14.80;99.90;;;13.38;89.03;101323.91;3510352;40;102367;-42
2021/06/27 02:51:13;;;;;;;11.63;8.27;;;14.80;99.90;;;13.36;88.78;101329.63;3510620;40;102489;-41
2021/06/27 02:53:41;;;;;;;10.10;7.75;;;14.70;99.90;;;13.32;88.92;101325.63;3510090;40;102625;-42
2021/06/27 02:56:08;;;;;;;10.27;7.97;;;14.70;99.90;;;13.30;88.75;101319.53;3510349;40;102589;-42
2021/06/27 02:58:43;;;;;;;12.05;7.75;;;14.70;99.90;;;13.26;88.62;101314.69;3510150;40;103252;-42
2021/06/27 03:01:12;;;;;;;10.38;7.63;;;14.70;99.90;;;13.22;88.83;101306.91;3510444;40;102162;-42
2021/06/27 03:03:42;;;;;;;9.52;7.35;;;14.60;99.90;;;13.13;88.86;101289.06;3510414;40;102346;-42
2021/06/27 03:06:11;;;;;;;9.02;7.60;;;14.60;99.90;;;13.15;89.01;101297.91;3509858;40;103212;-41
2021/06/27 03:08:39;;;;;;;10.35;7.55;;;14.50;99.90;;;13.13;88.97;101293.69;3510242;40;102345;-42
2021/06/27 03:11:07;;;;;;;10.68;8.15;;;14.50;99.90;;;13.09;89.16;101285.06;3510634;40;103239;-41
2021/06/27 03:13:41;;;;;;;10.02;7.95;;;14.50;99.90;;;13.14;89.51;101292.63;3510318;40;102390;-41
2021/06/27 03:16:10;;;;;;;11.15;8.32;;;14.50;99.90;;;13.15;89.29;101291.56;3510160;40;102894;-42
2021/06/27 03:18:38;;;;;;;11.75;8.25;;;14.50;99.90;;;13.13;89.52;101297.28;3509774;40;102418;-42
2021/06/27 03:21:06;;;;;;;10.93;8.00;;;14.50;99.90;;;13.06;89.31;101291.84;3509670;40;103111;-41
2021/06/27 03:23:34;;;;;;;;;;;14.50;99.90;;;13.11;89.55;101304.03;3511023;40;102297;-41
2021/06/27 03:26:02;;;;;;;9.77;7.60;;;14.50;99.90;;;13.09;89.45;101299.59;3510304;40;102626;-42
2021/06/27 03:28:34;;;;;;;;;;;14.50;99.90;;;13.11;89.60;101306.78;3510693;40;102635;-41
2021/06/27 03:31:03;;;;;;;10.20;6.95;;;14.50;99.90;;;13.11;89.38;101295.81;3510264;40;102102;-42
2021/06/27 03:33:31;;;;;;;11.68;7.38;;;14.50;99.90;;;13.11;89.52;101293.06;3509904;40;103258;-42
2021/06/27 03:35:58;;;;;;;14.13;8.88;;;14.50;99.90;;;13.15;89.87;101297.03;3509582;40;102329;-41
2021/06/27 03:40:56;;;;;;;11.50;8.65;;;14.50;99.90;;;13.19;90.14;101279.13;3509739;40;102221;-42
2021/06/27 03:43:23;;;;;;;12.82;9.00;;;14.60;99.90;;;13.25;90.09;101283.72;3510125;40;102416;-41
2021/06/27 03:45:50;;;;;;;12.10;9.05;;;14.60;99.90;;;13.33;90.46;101297.16;3510082;40;103066;-42
2021/06/27 03:48:17;;;;;;;10.65;8.68;;;14.70;99.90;;;13.41;90.78;101293.34;3509971;40;102377;-42
2021/06/27 03:50:45;;;;;;;12.60;9.07;;;14.70;99.90;;;13.49;90.69;101292.25;3510396;40;102314;-42
2021/06/27 03:53:13;;;;;;;11.38;8.60;;;14.80;99.90;;;13.60;90.70;101297.03;3510077;40;102461;-41
2021/06/27 03:55:40;;;;;;;12.07;8.93;;;14.90;99.90;;;13.68;90.90;101304.16;3510065;40;103162;-42
2021/06/27 03:58:07;;;;;;;13.25;9.85;;;14.90;99.90;;;13.77;91.18;101313.78;3509968;40;102246;-41
2021/06/27 04:00:35;;;;;;;13.15;9.32;;;15.00;99.90;;;13.85;91.23;101317.31;3510244;40;103036;-42
2021/06/27 04:03:03;;;;;;;;;;;15.10;99.90;;;13.96;91.36;101319.34;3510634;40;102306;-42
2021/06/27 04:05:30;;;;;;;12.68;8.75;;;15.20;99.90;;;14.03;91.50;101317.38;3509779;40;102724;-43
2021/06/27 04:07:58;;;;;;;12.70;8.65;;;15.20;99.90;;;14.14;91.60;101313.09;3509746;40;102622;-41
2021/06/27 04:10:26;;;;;;;12.00;8.90;;;15.40;99.90;;;14.31;92.54;101296.88;3510038;40;103167;-41
2021/06/27 04:12:53;;;;;;;13.50;9.52;;;15.50;99.90;;;14.41;92.64;101295.50;3510484;40;102578;-42
2021/06/27 04:15:21;;;;;;;13.48;10.30;;;15.60;99.90;;;14.51;92.59;101288.44;3509742;40;102601;-42
2021/06/27 04:17:48;;;;;;;13.02;9.30;;;15.70;99.90;;;14.62;92.49;101286.84;3510015;40;102236;-41
2021/06/27 04:20:16;;;;;;;12.45;9.68;;;15.80;99.90;;;14.71;92.14;101283.81;3510087;40;103286;-43
2021/06/27 04:22:43;;;;;;;12.15;9.38;;;15.80;99.90;;;14.79;91.65;101289.00;3508974;40;103671;-41
2021/06/27 04:25:11;;;;;;;12.18;9.65;;;15.90;99.90;;;14.86;91.09;101295.25;3509292;40;103194;-42
2021/06/27 04:27:38;;;;;;;13.57;9.02;;;16.00;99.90;;;14.89;90.93;101283.00;3509973;40;102400;-42
2021/06/27 04:30:10;;;;;;;13.95;10.10;;;16.10;99.90;;;15.02;91.31;101291.03;3510060;40;102317;-42
2021/06/27 04:32:38;;;;;;;14.40;10.05;;;16.20;99.90;;;15.09;91.07;101286.28;3510034;40;102130;-41
2021/06/27 04:35:07;;;;;;;14.23;9.93;;;16.30;99.90;;;15.20;91.41;101287.41;3509600;40;102260;-41
2021/06/27 04:37:36;;;;;;;15.95;10.98;;;16.30;99.90;;;15.27;91.61;101281.00;3510183;40;102412;-42
2021/06/27 04:40:05;;;;;;;13.10;9.60;;;16.40;99.90;;;15.32;91.19;101278.41;3509938;40;102205;-42
2021/06/27 04:42:32;;;;;;;13.40;9.75;;;16.50;99.90;;;15.39;91.00;101273.63;3509873;40;102358;-42
2021/06/27 04:45:00;;;;;;;14.90;9.77;;;16.50;99.90;;;15.43;90.20;101274.03;3509386;40;103491;-41
2021/06/27 04:47:28;;;;;;;12.40;9.07;;;16.60;99.90;;;15.46;89.88;101270.78;3509613;40;103525;-42
2021/06/27 04:49:55;;;;;;;;;;;16.60;99.90;;;15.56;89.76;101271.06;3510677;40;103162;-42
2021/06/27 04:52:22;;;;;;;12.90;9.40;;;16.70;99.90;;;15.64;89.84;101269.88;3510039;40;102714;-44
2021/06/27 04:54:50;;;;;;;12.27;9.13;;;16.70;99.90;;;15.73;89.88;101257.44;3509592;40;102434;-42
2021/06/27 04:57:17;;;;;;;14.25;9.60;;;16.80;99.90;;;15.82;89.86;101258.81;3509459;40;102429;-42
2021/06/27 04:59:44;;;;;;;13.13;9.57;;;16.90;99.90;;;15.92;89.25;101255.50;3509941;40;103330;-42
2021/06/27 05:02:12;;;;;;;14.38;10.10;;;17.00;99.90;;;16.07;89.48;101254.16;3509676;40;102317;-42
2021/06/27 05:04:39;;;;;;;13.10;9.77;;;17.10;99.90;;;16.19;88.65;101260.53;3509667;40;102279;-42
2021/06/27 05:07:07;;;;;;;13.13;9.70;;;17.20;99.90;;;16.28;86.48;101251.91;3509689;40;102178;-42
2021/06/27 05:09:34;;;;;;;11.75;9.05;;;17.30;99.90;;;16.38;85.62;101257.63;3509578;40;102396;-42
2021/06/27 05:12:02;;;;;;;11.07;8.85;;;17.40;99.90;;;16.53;86.39;101254.38;3509724;40;102327;-42
2021/06/27 05:14:29;;;;;;;12.45;8.77;;;17.50;99.90;;;16.61;84.24;101251.25;3509334;40;102323;-43
2021/06/27 05:16:57;;;;;;;12.88;8.30;;;17.60;99.90;;;16.81;84.22;101253.59;3509571;40;102202;-42
2021/06/27 05:19:25;;;;;;;11.70;8.52;;;17.80;99.90;;;16.96;83.84;101253.06;3509504;40;103398;-42
2021/06/27 05:21:53;;;;;;;10.25;8.13;;;17.90;99.90;;;17.11;82.11;101247.06;3509263;40;102832;-42
2021/06/27 05:24:20;;;;;;;11.40;9.10;;;18.00;99.90;;;17.29;82.58;101239.66;3509339;40;102254;-42
2021/06/27 05:26:48;;;;;;;12.32;8.65;;;18.20;99.90;;;17.36;79.64;101234.81;3509361;40;102226;-42
2021/06/27 05:29:15;;;;;;;10.45;8.27;;;18.30;99.90;;;17.52;80.85;101244.19;3509722;40;102265;-42
2021/06/27 05:31:43;;;;;;;11.80;8.43;;;18.40;99.90;;;17.65;80.99;101243.03;3509480;40;103455;-42
2021/06/27 05:34:10;;;;;;;16.92;9.00;;;18.50;99.90;;;17.69;78.82;101243.38;3509423;40;102734;-42
2021/06/27 05:36:38;;;;;;;11.27;8.10;;;18.60;99.90;;;17.79;78.11;101251.00;3516587;40;102159;-43
2021/06/27 05:39:11;;;;;;;12.23;8.23;;;18.70;99.90;;;17.92;77.46;101244.31;3509367;40;103183;-42
2021/06/27 05:41:40;;;;;;;11.73;8.43;;;18.80;99.90;;;18.01;77.23;101241.94;3509320;40;102382;-42
2021/06/27 05:44:08;;;;;;;11.38;8.02;;;18.90;99.90;;;18.11;75.80;101229.16;3509022;40;102723;-44
2021/06/27 05:46:35;;;;;;;;;;;19.00;99.90;;;18.28;77.08;101232.97;3509935;40;102460;-42
2021/06/27 05:49:05;;;;;;;11.98;7.85;;;19.20;99.90;;;18.34;74.05;101226.44;3509276;40;102110;-42
2021/06/27 05:51:37;;;;;;;9.15;7.20;;;19.30;99.90;;;18.55;74.24;101238.59;3508941;40;103079;-41
2021/06/27 05:54:13;;;;;;;10.70;7.72;;;19.40;99.90;;;18.77;72.95;101227.53;3509316;40;102338;-42
2021/06/27 05:56:41;;;;;;;11.70;7.68;;;19.60;99.90;;;19.00;73.21;101233.09;3509324;40;103357;-42
2021/06/27 05:59:08;;;;;;;11.55;7.72;;;19.80;99.90;;;19.14;72.06;101233.53;3508928;40;103228;-41
2021/06/27 06:01:35;;;;;;;10.73;8.07;;;20.00;99.90;;;19.29;70.36;101244.72;3508813;40;102361;-41
2021/06/27 06:04:03;;;;;;;9.85;7.68;;;20.10;99.90;;;19.45;71.50;101233.81;3509127;40;102620;-42
2021/06/27 06:06:31;;;;;;;10.45;7.30;;;20.30;99.90;;;19.61;69.85;101229.25;3510363;40;102443;-42
2021/06/27 06:08:59;;;;;;;12.20;7.30;;;20.50;99.90;;;19.73;68.00;101235.41;3510416;40;102184;-42
2021/06/27 06:11:27;;;;;;;10.90;6.72;;;20.60;99.90;;;20.00;70.70;101239.25;3510744;40;102410;-42
2021/06/27 06:13:55;;;;;;;9.88;7.20;;;20.80;99.90;;;20.10;66.74;101245.72;3510503;40;102706;-42
2021/06/27 06:16:23;;;;;;;10.80;7.05;;;20.90;99.90;;;20.25;68.22;101244.13;3510737;40;102396;-42
2021/06/27 06:18:50;;;;;;;;;;;21.00;99.90;;;20.38;67.75;101251.97;3510788;40;103574;-42
2021/06/27 06:21:18;;;;;;;10.90;7.30;;;21.20;99.90;;;20.60;68.10;101244.59;3510583;40;102413;-43
2021/06/27 06:23:46;;;;;;;9.98;6.85;;;21.30;99.90;;;20.77;63.64;101248.00;3510516;40;102368;-42
2021/06/27 06:26:14;;;;;;;11.23;6.80;;;21.50;99.90;;;20.99;65.15;101249.78;3510223;40;102381;-42
2021/06/27 06:28:41;;;;;;;9.00;7.03;;;21.70;99.90;;;21.20;65.96;101242.31;3509994;40;103180;-43
2021/06/27 06:31:11;;;;;;;9.25;7.18;;;21.90;99.90;;;21.37;66.86;101239.28;3510703;40;103148;-42
2021/06/27 06:33:38;;;;;;;9.43;6.72;;;22.10;99.90;;;21.52;62.91;101245.97;3510553;40;102821;-42
2021/06/27 06:36:06;;;;;;;9.98;7.22;;;22.20;99.90;;;21.75;64.70;101235.44;3510451;40;102507;-42
2021/06/27 06:38:34;;;;;;;8.73;6.47;;;22.40;99.90;;;21.93;63.18;101243.22;3510328;40;102188;-42
2021/06/27 06:41:01;;;;;;;;;;;22.60;99.90;;;22.08;62.06;101241.53;3510942;40;103360;-42
2021/06/27 06:43:29;;;;;;;8.90;6.55;;;22.70;99.90;;;22.29;64.26;101245.09;3510294;40;102750;-42
2021/06/27 06:45:57;;;;;;;8.82;6.35;;;22.90;99.90;;;22.50;62.13;101243.09;3510337;40;102743;-42
2021/06/27 06:48:44;;;;;;;15.32;6.60;;;23.10;99.90;;;22.73;60.25;101248.31;3510370;40;102307;-39
2021/06/27 06:51:11;;;;;;;9.27;7.00;;;23.30;99.90;;;22.81;57.40;101247.72;3509375;40;102233;-45
2021/06/27 06:53:38;;;;;;;8.25;6.57;;;23.40;99.90;;;22.95;58.03;101248.78;3510690;40;104170;-41
2021/06/27 06:56:06;;;;;;;8.45;6.45;;;23.50;99.90;;;22.98;56.93;101247.34;3510590;40;103346;-41
2021/06/27 06:58:33;;;;;;;8.85;6.57;;;23.70;99.90;;;23.07;56.36;101251.19;3511092;40;102327;-41
2021/06/27 07:01:01;;;;;;;9.07;6.70;;;23.70;99.90;;;23.07;58.32;101250.38;3500847;40;102416;-41
2021/06/27 07:03:30;;;;;;;;;;;23.70;99.90;;;23.10;56.32;101247.84;3501288;40;103993;-43
2021/06/27 07:06:01;;;;;;;7.47;6.00;;;23.90;99.90;;;23.35;57.14;101254.41;3500916;40;102121;-39
2021/06/27 07:08:30;;;;;;;8.70;6.25;;;23.90;99.90;;;23.47;56.47;101247.63;3501177;40;102281;-42
2021/06/27 07:10:57;;;;;;;7.78;5.80;;;24.10;99.90;;;23.64;54.57;101262.00;3500748;40;102929;-41
2021/06/27 07:13:25;;;;;;;7.13;5.95;;;24.30;99.90;;;23.78;55.40;101247.38;3500919;40;103276;-38
2021/06/27 07:15:52;;;;;;;;;;;24.40;99.90;;;23.79;56.75;101257.41;3500779;40;102444;-42
2021/06/27 07:18:20;;;;;;;6.82;5.28;;;24.40;99.90;;;23.84;54.96;101258.19;3501293;40;103051;-40
2021/06/27 07:20:49;;;;;;;7.45;5.35;;;24.50;99.90;;;23.58;53.92;101249.22;3500880;40;102472;-41
2021/06/27 07:23:17;;;;;;;6.82;5.25;;;24.40;99.90;;;23.70;56.17;101246.88;3501366;40;103276;-40
2021/06/27 07:25:45;;;;;;;7.00;5.60;;;24.40;99.90;;;23.97;56.19;101253.91;3500351;40;102310;-43
2021/06/27 07:28:12;;;;;;;8.07;5.15;;;24.50;99.90;;;24.15;52.74;101247.91;3500722;40;102418;-39
2021/06/27 07:30:40;;;;;;;7.22;5.25;;;24.70;99.90;;;24.36;53.19;101252.13;3500634;40;102394;-39
2021/06/27 07:33:09;;;;;;;6.55;5.00;;;24.90;99.90;;;24.46;52.70;101247.56;3500826;40;104180;-42
2021/06/27 07:35:36;;;;;;;6.90;5.13;;;25.00;99.90;;;24.54;49.53;101241.34;3500865;40;102694;-41
2021/06/27 07:38:04;;;;;;;6.82;4.95;;;25.10;99.90;;;24.65;49.78;101233.66;3500935;40;102736;-41
2021/06/27 07:40:31;;;;;;;7.00;5.00;;;25.20;99.90;;;24.82;50.13;101247.16;3500517;40;102527;-45
2021/06/27 07:42:59;;;;;;;6.43;5.15;;;25.30;99.90;;;24.92;49.62;101246.16;3501070;40;102337;-41
2021/06/27 07:45:27;;;;;;;9.65;5.18;;;25.50;99.90;;;25.01;51.54;101249.97;3500646;40;103295;-41
2021/06/27 07:47:54;;;;;;;;;;;25.50;99.90;;;25.05;48.49;101251.00;3501234;40;104399;-42
2021/06/27 07:50:21;;;;;;;5.90;4.85;;;25.70;99.90;;;25.21;48.29;101253.59;3501010;40;102219;-41
2021/06/27 07:52:49;;;;;;;15.35;11.40;;;25.70;99.90;;;25.36;50.42;101253.34;3500908;40;102827;-40
2021/06/27 07:55:16;;;;;;;6.28;5.28;;;25.80;99.90;;;25.43;49.17;101250.19;3500831;40;102356;-44
2021/06/27 07:57:43;;;;;;;5.63;4.63;;;25.90;99.90;;;25.66;48.25;101242.03;3500697;40;103322;-42
2021/06/27 08:00:12;;;;;;;7.55;5.47;;;;;;;25.85;48.90;101244.75;3500223;40;103379;-38
2021/06/27 08:02:41;;;;;;;6.90;5.05;;;;;;;26.01;46.65;101245.31;3501075;40;102312;-43
2021/06/27 08:05:09;;;;;;;6.82;5.00;;;;;;;25.94;48.48;101245.72;3500314;40;102295;-44
2021/06/27 08:07:37;;;;;;;5.85;4.57;;;;;;;25.76;46.76;101249.41;3500850;40;103308;-43
2021/06/27 08:10:07;;;;;;;6.20;4.93;;;;;;;25.83;46.58;101244.25;3500389;40;103390;-41
2021/06/27 08:12:36;;;;;;;6.07;4.95;;;;;;;25.66;47.87;101240.03;3500612;40;102193;-41
2021/06/27 08:15:06;;;;;;;6.18;4.65;;;;;;;25.67;48.66;101244.50;3500938;40;102375;-42
2021/06/27 08:17:34;;;;;;;5.88;5.00;;;;;;;25.89;48.10;101239.41;3500861;40;103157;-42
2021/06/27 08:20:04;;;;;;;6.60;5.05;;;;;;;25.83;44.22;101236.69;3500761;40;102455;-41
2021/06/27 08:22:32;;;;;;;7.00;4.55;;;;;;;25.90;43.99;101235.47;3500954;40;103201;-42
2021/06/27 08:25:00;;;;;;;6.18;5.00;;;;;;;25.95;44.42;101235.38;3500500;40;104312;-40
2021/06/27 08:27:28;;;;;;;6.20;4.70;;;;;;;26.08;45.40;101242.13;3501163;40;103174;-44
2021/06/27 08:29:56;;;;;;;6.78;4.80;;;;;;;26.21;46.25;101232.94;3500352;40;102325;-42
2021/06/27 08:32:24;;;;;;;6.93;4.93;;;;;;;26.42;48.23;101229.75;3500353;40;102140;-42
2021/06/27 08:34:55;;;;;;;6.82;5.05;;;;;;;26.49;45.83;101230.16;3500561;40;102407;-42
2021/06/27 08:37:23;;;;;;;6.22;4.35;;;;;;;26.52;43.49;101223.13;3500506;40;102207;-42
2021/06/27 08:39:51;;;;;;;7.18;4.70;;;;;;;26.45;46.38;101217.13;3500711;40;102379;-40
2021/06/27 08:42:20;;;;;;;6.32;4.95;;;;;;;26.33;48.05;101212.03;3501009;40;103353;-40
2021/06/27 08:44:49;;;;;;;8.25;4.68;;;;;;;26.34;45.79;101217.31;3500308;40;102380;-42
2021/06/27 08:47:18;;;;;;;5.88;4.82;;;;;;;26.23;48.10;101215.88;3499996;40;102304;-42
2021/06/27 08:49:51;;;;;;;5.50;4.82;;;;;;;26.23;42.99;101219.47;3499958;40;102451;-40
2021/06/27 08:52:20;;;;;;;5.80;4.55;;;;;;;26.14;45.84;101213.78;3500881;40;104069;-41
2021/06/27 08:54:50;;;;;;;7.40;5.05;;;;;;;26.08;48.09;101209.38;3500708;40;102402;-42
2021/06/27 08:57:19;;;;;;;6.47;4.60;;;;;;;26.12;48.24;101215.19;3500418;40;104226;-39
2021/06/27 08:59:47;;;;;;;5.70;4.57;;;;;;;26.30;47.42;101213.47;3500336;40;103389;-42
2021/06/27 09:02:15;;;;;;;5.32;4.38;;;;;;;26.31;44.68;101217.94;3500520;40;102244;-40
2021/06/27 09:04:44;;;;;;;5.57;4.35;;;;;;;26.47;47.68;101206.44;3500570;40;102388;-41
2021/06/27 09:07:34;;;;;;;5.25;4.40;;;;;;;26.53;45.11;101210.78;3500548;40;103420;-44
2021/06/27 09:10:09;;;;;;;5.82;4.50;;;;;;;26.55;46.56;101214.94;3500491;40;102799;-42
2021/06/27 09:12:50;;;;;;;5.38;4.22;;;;;;;26.53;44.53;101206.03;3500861;40;102213;-41
2021/06/27 09:15:49;;;;;;;5.88;3.95;;;;;;;26.46;44.54;101211.19;3500766;40;102418;-44
2021/06/27 09:18:17;;;;;;;5.47;4.13;;;;;;;26.49;46.77;101216.16;3500531;40;103206;-42
2021/06/27 09:20:53;;;;;;;4.88;4.00;;;;;;;26.49;44.57;101207.78;3500322;40;102380;-42
2021/06/27 09:23:38;;;;;;;5.47;4.03;;;;;;;26.53;43.12;101214.41;3500340;40;103265;-43
2021/06/27 09:26:07;;;;;;;4.82;3.85;;;;;;;26.58;44.05;101205.06;3500441;40;102421;-41
2021/06/27 09:28:44;;;;;;;5.90;4.38;;;;;;;26.76;46.25;101208.88;3500303;40;103292;-41
2021/06/27 09:31:31;;;;;;;5.22;4.28;;;;;;;26.85;45.79;101183.81;3500918;40;102840;-41
2021/06/27 09:34:00;;;;;;;5.38;4.20;;;;;;;26.96;42.44;101192.78;3500666;40;102226;-39
2021/06/27 09:36:28;;;;;;;4.72;3.95;;;;;;;27.07;44.24;101188.63;3500632;40;102482;-42
2021/06/27 09:38:57;;;;;;;5.15;3.90;;;;;;;27.10;43.03;101199.19;3500421;40;102137;-40
2021/06/27 09:41:35;;;;;;;5.05;3.85;;;;;;;27.08;43.64;101195.88;3502282;40;102574;-41
2021/06/27 09:44:08;;;;;;;5.32;4.60;;;;;;;26.97;41.79;101194.44;3501746;40;102188;-39
2021/06/27 09:46:39;;;;;;;5.53;4.45;;;;;;;27.22;44.85;101186.59;3501925;40;101755;-41
2021/06/27 09:49:10;;;;;;;5.72;4.30;;;;;;;27.31;44.77;101190.28;3501615;40;102290;-40
2021/06/27 09:51:43;;;;;;;5.30;4.35;;;;;;;26.82;41.74;101192.81;3501249;40;102411;-42
2021/06/27 09:54:19;;;;;;;5.63;4.25;;;;;;;26.83;42.87;101186.91;3501787;40;103815;-41
2021/06/27 09:56:49;;;;;;;5.10;4.00;;;;;;;26.82;44.45;101174.06;3501204;40;102212;-41
2021/06/27 09:59:22;;;;;;;4.78;3.80;;;;;;;26.77;43.75;101176.94;3501446;40;103517;-40
2021/06/27 10:01:50;;;;;;;4.68;4.10;;;;;;;27.10;42.78;101171.19;3501431;40;102556;-38
2021/06/27 10:04:35;;;;;;;4.93;4.30;;;;;;;27.46;45.51;101165.84;3501458;40;103039;-41
2021/06/27 10:07:06;;;;;;;4.70;3.75;;;;;;;27.76;41.86;101166.19;3501328;40;102411;-44
2021/06/27 10:09:39;;;;;;;6.32;4.15;;;;;;;27.89;39.55;101154.06;3501804;40;103144;-41
2021/06/27 10:12:16;;;;;;;5.57;4.38;;;;;;;27.95;37.94;101160.34;3501713;40;102637;-40
2021/06/27 10:14:51;;;;;;;4.50;3.65;;;;;;;28.00;40.46;101160.22;3500888;40;102308;-40
2021/06/27 10:17:25;;;;;;;4.82;3.55;;;;;;;28.15;38.41;101153.38;3501823;40;102150;-41
2021/06/27 10:19:54;;;;;;;5.32;3.88;;;;;;;28.16;39.60;101149.44;3501500;40;103237;-42
2021/06/27 10:22:25;;;;;;;4.32;3.80;;;;;;;28.35;37.75;101151.09;3501602;40;102387;-41
2021/06/27 10:24:54;;;;;;;4.72;3.67;;;;;;;28.26;41.02;101149.13;3501018;40;103286;-40
2021/06/27 10:27:23;;;;;;;4.20;3.60;;;;;;;28.52;40.40;101147.53;3501121;40;103491;-42
2021/06/27 10:29:51;;;;;;;4.50;3.70;;;;;;;28.73;40.68;101156.13;3501734;40;102312;-41
2021/06/27 10:32:20;;;;;;;4.53;3.47;;;;;;;28.61;39.14;101150.31;3501245;40;102454;-38
2021/06/27 10:34:48;;;;;;;6.15;3.38;;;;;;;28.43;38.19;101148.31;3501203;40;102326;-42